createdAt,value
2022-08-20T00:00:57.770Z,85.44
2022-08-20T00:03:31.221Z,85.39
2022-08-20T00:06:14.779Z,85.47
2022-08-20T00:08:46.695Z,85.57
2022-08-20T00:11:22.027Z,85.65
2022-08-20T00:13:57.752Z,85.63
2022-08-20T00:16:32.980Z,85.69
2022-08-20T00:19:06.996Z,85.75
2022-08-20T00:21:38.946Z,85.76
2022-08-20T00:24:10.601Z,85.77
2022-08-20T00:26:46.797Z,85.77
2022-08-20T00:29:16.774Z,85.73
2022-08-20T00:31:50.707Z,85.84
2022-08-20T00:34:22.559Z,85.94
2022-08-20T00:36:54.456Z,85.93
2022-08-20T00:39:26.222Z,85.93
2022-08-20T00:41:57.901Z,85.84
2022-08-20T00:44:29.942Z,85.80
2022-08-20T00:47:01.733Z,85.80
2022-08-20T00:49:34.136Z,85.73
2022-08-20T00:52:14.506Z,85.61
2022-08-20T00:54:49.201Z,85.54
2022-08-20T00:57:58.975Z,85.51
2022-08-20T01:00:12.414Z,85.49
2022-08-20T01:02:46.670Z,85.56
2022-08-20T01:05:18.721Z,85.60
2022-08-20T01:07:53.780Z,85.57
2022-08-20T01:10:29.853Z,85.61
2022-08-20T01:13:03.373Z,85.59
2022-08-20T01:15:38.970Z,85.51
2022-08-20T01:18:11.304Z,85.39
2022-08-20T01:20:46.076Z,85.29
2022-08-20T01:23:32.793Z,85.50
2022-08-20T01:26:12.825Z,85.59
2022-08-20T01:28:57.206Z,85.73
2022-08-20T01:31:34.075Z,85.78
2022-08-20T01:34:08.583Z,85.82
2022-08-20T01:36:46.595Z,85.83
2022-08-20T01:39:21.723Z,85.71
2022-08-20T01:42:08.779Z,85.63
2022-08-20T01:44:42.624Z,85.54
2022-08-20T01:47:17.908Z,85.51
2022-08-20T01:49:52.556Z,85.36
2022-08-20T01:52:27.734Z,85.30
2022-08-20T01:55:00.010Z,85.19
2022-08-20T01:57:32.075Z,85.09
2022-08-20T02:00:09.064Z,85.05
2022-08-20T02:02:42.651Z,85.02
2022-08-20T02:05:14.970Z,84.99
2022-08-20T02:07:46.997Z,85.17
2022-08-20T02:10:19.996Z,85.30
2022-08-20T02:12:51.754Z,85.42
2022-08-20T02:15:34.715Z,85.52
2022-08-20T02:17:58.782Z,85.54
2022-08-20T02:20:32.031Z,85.51
2022-08-20T02:23:04.767Z,85.43
2022-08-20T02:25:38.059Z,85.48
2022-08-20T02:28:12.848Z,85.56
2022-08-20T02:30:47.679Z,85.62
2022-08-20T02:33:22.361Z,85.67
2022-08-20T02:35:57.131Z,85.50
2022-08-20T02:38:28.864Z,85.23
2022-08-20T02:41:00.608Z,85.04
2022-08-20T02:43:32.454Z,84.89
2022-08-20T02:46:04.530Z,84.91
2022-08-20T02:48:36.248Z,85.07
2022-08-20T02:51:08.501Z,85.19
2022-08-20T02:53:42.194Z,85.28
2022-08-20T02:56:14.293Z,85.27
2022-08-20T02:58:46.213Z,85.29
2022-08-20T03:01:18.528Z,85.42
2022-08-20T03:03:50.467Z,85.35
2022-08-20T03:06:22.528Z,85.21
2022-08-20T03:08:55.217Z,85.12
2022-08-20T03:11:27.136Z,84.96
2022-08-20T03:13:59.857Z,84.77
2022-08-20T03:16:31.857Z,84.54
2022-08-20T03:19:04.237Z,84.56
2022-08-20T03:21:36.108Z,84.61
2022-08-20T03:24:07.836Z,84.61
2022-08-20T03:26:39.595Z,84.72
2022-08-20T03:29:11.300Z,84.92
2022-08-20T03:31:43.086Z,85.21
2022-08-20T03:34:14.937Z,85.34
2022-08-20T03:36:47.150Z,85.48
2022-08-20T03:39:18.866Z,85.45
2022-08-20T03:41:50.724Z,85.37
2022-08-20T03:44:22.628Z,85.19
2022-08-20T03:46:54.637Z,84.87
2022-08-20T03:49:26.833Z,84.54
2022-08-20T03:51:58.742Z,83.18
2022-08-20T03:54:32.040Z,82.24
2022-08-20T03:57:12.866Z,81.25
2022-08-20T03:59:38.277Z,80.09
2022-08-20T04:02:11.345Z,79.32
2022-08-20T04:04:43.097Z,78.08
2022-08-20T04:07:19.059Z,76.87
2022-08-20T04:09:50.787Z,75.93
2022-08-20T04:12:24.384Z,75.30
2022-08-20T04:14:56.197Z,74.35
2022-08-20T04:17:28.654Z,73.74
2022-08-20T04:20:00.387Z,73.28
2022-08-20T04:22:32.635Z,73.29
2022-08-20T04:25:06.183Z,73.58
2022-08-20T04:27:40.542Z,73.57
2022-08-20T04:30:14.363Z,73.20
2022-08-20T04:32:46.139Z,73.12
2022-08-20T04:35:18.677Z,73.16
2022-08-20T04:37:50.477Z,72.97
2022-08-20T04:40:39.916Z,73.33
2022-08-20T04:43:12.437Z,73.77
2022-08-20T04:45:45.057Z,73.92
2022-08-20T04:48:16.838Z,74.26
2022-08-20T04:50:48.627Z,74.74
2022-08-20T04:53:25.773Z,74.94
2022-08-20T04:55:58.170Z,75.08
2022-08-20T04:58:33.874Z,75.42
2022-08-20T05:01:10.709Z,75.49
2022-08-20T05:03:43.414Z,75.47
2022-08-20T05:06:17.055Z,75.43
2022-08-20T05:08:50.869Z,75.42
2022-08-20T05:11:35.375Z,75.17
2022-08-20T05:13:56.991Z,74.65
2022-08-20T05:16:28.803Z,74.48
2022-08-20T05:19:00.457Z,73.60
2022-08-20T05:21:32.707Z,73.16
2022-08-20T05:24:05.102Z,72.50
2022-08-20T05:26:37.755Z,72.06
2022-08-20T05:29:09.683Z,71.79
2022-08-20T05:31:42.430Z,71.75
2022-08-20T05:34:14.306Z,71.70
2022-08-20T05:36:49.317Z,71.69
2022-08-20T05:39:22.959Z,71.34
2022-08-20T05:41:54.626Z,70.72
2022-08-20T05:44:26.433Z,70.60
2022-08-20T05:46:58.276Z,70.33
2022-08-20T05:49:30.757Z,70.21
2022-08-20T05:52:02.836Z,70.13
2022-08-20T05:54:36.795Z,70.29
2022-08-20T05:57:08.537Z,70.25
2022-08-20T05:59:41.011Z,69.52
2022-08-20T06:02:30.590Z,69.64
2022-08-20T06:05:02.374Z,69.44
2022-08-20T06:07:34.152Z,69.12
2022-08-20T06:10:07.990Z,68.73
2022-08-20T06:12:40.629Z,68.49
2022-08-20T06:15:12.857Z,68.10
2022-08-20T06:17:45.591Z,67.45
2022-08-20T06:20:19.463Z,67.19
2022-08-20T06:22:51.395Z,67.15
2022-08-20T06:25:23.224Z,67.16
2022-08-20T06:27:55.024Z,67.20
2022-08-20T06:30:26.814Z,66.54
2022-08-20T06:32:58.666Z,66.05
2022-08-20T06:35:30.456Z,65.96
2022-08-20T06:38:02.357Z,66.06
2022-08-20T06:40:34.591Z,66.30
2022-08-20T06:43:08.138Z,66.27
2022-08-20T06:45:40.733Z,66.27
2022-08-20T06:48:15.163Z,66.15
2022-08-20T06:50:48.267Z,65.81
2022-08-20T06:53:21.381Z,65.46
2022-08-20T06:55:56.441Z,65.10
2022-08-20T06:58:36.575Z,64.91
2022-08-20T07:01:05.180Z,64.99
2022-08-20T07:03:38.583Z,65.24
2022-08-20T07:06:11.387Z,65.39
2022-08-20T07:08:43.718Z,65.16
2022-08-20T07:11:17.421Z,64.93
2022-08-20T07:13:49.934Z,65.04
2022-08-20T07:16:22.057Z,64.87
2022-08-20T07:18:53.960Z,63.42
2022-08-20T07:21:26.173Z,63.42
2022-08-20T07:23:57.996Z,63.81
2022-08-20T07:26:29.896Z,63.53
2022-08-20T07:29:01.821Z,63.07
2022-08-20T07:31:51.523Z,62.11
2022-08-20T07:34:23.511Z,61.92
2022-08-20T07:36:55.614Z,62.16
2022-08-20T07:39:29.918Z,62.09
2022-08-20T07:42:04.254Z,61.64
2022-08-20T07:44:37.027Z,61.23
2022-08-20T07:47:08.950Z,61.52
2022-08-20T07:49:41.467Z,61.74
2022-08-20T07:52:14.239Z,61.89
2022-08-20T07:54:46.102Z,62.12
2022-08-20T07:57:18.987Z,61.84
2022-08-20T07:59:50.709Z,61.76
2022-08-20T08:02:22.518Z,61.78
2022-08-20T08:04:55.084Z,61.52
2022-08-20T08:07:27.061Z,61.51
2022-08-20T08:09:59.042Z,61.51
2022-08-20T08:12:35.147Z,61.04
2022-08-20T08:15:08.544Z,60.79
2022-08-20T08:17:41.125Z,60.56
2022-08-20T08:20:13.436Z,60.65
2022-08-20T08:22:46.152Z,60.47
2022-08-20T08:25:18.424Z,60.58
2022-08-20T08:27:50.380Z,59.89
2022-08-20T08:30:22.598Z,59.89
2022-08-20T08:33:12.076Z,59.98
2022-08-20T08:35:45.439Z,59.85
2022-08-20T08:38:17.224Z,59.60
2022-08-20T08:40:52.209Z,59.34
2022-08-20T08:43:31.190Z,59.53
2022-08-20T08:46:03.275Z,59.24
2022-08-20T08:48:42.482Z,59.16
2022-08-20T08:51:16.456Z,59.12
2022-08-20T08:53:53.013Z,59.25
2022-08-20T08:56:31.708Z,59.02
2022-08-20T08:59:10.935Z,59.17
2022-08-20T09:01:53.780Z,58.85
2022-08-20T09:04:22.132Z,58.18
2022-08-20T09:06:55.140Z,58.13
2022-08-20T09:09:32.697Z,58.02
2022-08-20T09:12:07.979Z,57.84
2022-08-20T09:14:39.937Z,57.94
2022-08-20T09:17:11.693Z,57.88
2022-08-20T09:19:43.536Z,58.17
2022-08-20T09:22:17.767Z,58.00
2022-08-20T09:24:50.363Z,57.91
2022-08-20T09:27:22.238Z,58.22
2022-08-20T09:29:54.363Z,58.43
2022-08-20T09:32:26.318Z,58.35
2022-08-20T09:34:59.301Z,57.60
2022-08-20T09:37:36.702Z,57.38
2022-08-20T09:40:08.333Z,57.79
2022-08-20T09:42:41.931Z,58.05
2022-08-20T09:45:14.619Z,57.83
2022-08-20T09:47:54.964Z,57.44
2022-08-20T09:50:20.758Z,57.81
2022-08-20T09:52:54.691Z,57.78
2022-08-20T09:55:41.289Z,57.87
2022-08-20T09:58:34.325Z,57.35
2022-08-20T10:01:14.002Z,56.68
2022-08-20T10:03:44.283Z,56.33
2022-08-20T10:06:17.975Z,56.23
2022-08-20T10:08:50.515Z,55.50
2022-08-20T10:11:22.558Z,55.25
2022-08-20T10:13:54.446Z,54.82
2022-08-20T10:16:26.314Z,55.12
2022-08-20T10:18:58.252Z,55.98
2022-08-20T10:21:35.335Z,56.42
2022-08-20T10:24:05.419Z,57.34
2022-08-20T10:26:39.613Z,58.09
2022-08-20T10:29:11.401Z,58.37
2022-08-20T10:31:43.376Z,58.10
2022-08-20T10:34:15.009Z,57.82
2022-08-20T10:36:47.695Z,57.83
2022-08-20T10:39:19.480Z,57.74
2022-08-20T10:41:51.363Z,56.75
2022-08-20T10:44:23.208Z,57.09
2022-08-20T10:46:57.084Z,56.94
2022-08-20T10:49:28.428Z,56.73
2022-08-20T10:52:00.262Z,57.16
2022-08-20T10:54:32.200Z,57.59
2022-08-20T10:57:05.093Z,57.77
2022-08-20T10:59:42.856Z,58.12
2022-08-20T11:02:15.485Z,58.82
2022-08-20T11:04:47.782Z,58.75
2022-08-20T11:07:52.815Z,59.02
2022-08-20T11:10:01.861Z,59.23
2022-08-20T11:12:34.065Z,58.79
2022-08-20T11:15:09.372Z,58.66
2022-08-20T11:17:42.535Z,58.27
2022-08-20T11:20:16.489Z,58.49
2022-08-20T11:22:48.410Z,58.82
2022-08-20T11:25:20.919Z,58.01
2022-08-20T11:27:54.030Z,57.67
2022-08-20T11:30:29.089Z,57.75
2022-08-20T11:33:01.666Z,57.77
2022-08-20T11:35:48.314Z,57.99
2022-08-20T11:38:08.752Z,57.91
2022-08-20T11:40:41.075Z,58.04
2022-08-20T11:43:15.487Z,58.13
2022-08-20T11:45:49.410Z,58.27
2022-08-20T11:48:21.426Z,58.39
2022-08-20T11:50:53.380Z,58.32
2022-08-20T11:53:25.683Z,58.28
2022-08-20T11:55:57.614Z,58.61
2022-08-20T11:58:31.149Z,58.42
2022-08-20T12:01:02.928Z,58.37
2022-08-20T12:03:35.767Z,58.78
2022-08-20T12:06:08.107Z,59.10
2022-08-20T12:08:41.163Z,59.25
2022-08-20T12:11:13.373Z,59.25
2022-08-20T12:13:48.815Z,59.04
2022-08-20T12:16:20.259Z,57.52
2022-08-20T12:18:52.639Z,57.49
2022-08-20T12:21:24.546Z,57.68
2022-08-20T12:23:56.442Z,56.89
2022-08-20T12:26:28.764Z,56.81
2022-08-20T12:29:00.715Z,56.11
2022-08-20T12:31:32.946Z,55.90
2022-08-20T12:34:04.681Z,55.98
2022-08-20T12:36:36.595Z,56.12
2022-08-20T12:39:09.550Z,56.03
2022-08-20T12:41:41.388Z,56.05
2022-08-20T12:44:14.453Z,55.76
2022-08-20T12:46:46.270Z,55.92
2022-08-20T12:49:18.075Z,55.70
2022-08-20T12:51:50.080Z,55.72
2022-08-20T12:54:21.973Z,55.50
2022-08-20T12:56:53.847Z,55.64
2022-08-20T12:59:26.421Z,55.40
2022-08-20T13:01:58.224Z,54.99
2022-08-20T13:04:32.291Z,54.28
2022-08-20T13:07:04.785Z,54.07
2022-08-20T13:09:38.421Z,53.90
2022-08-20T13:12:14.479Z,53.99
2022-08-20T13:14:46.951Z,54.19
2022-08-20T13:17:19.849Z,53.72
2022-08-20T13:19:53.252Z,53.91
2022-08-20T13:22:24.917Z,53.89
2022-08-20T13:24:56.623Z,53.76
2022-08-20T13:27:28.763Z,53.80
2022-08-20T13:30:00.599Z,53.64
2022-08-20T13:32:32.744Z,53.22
2022-08-20T13:35:05.994Z,53.07
2022-08-20T13:37:38.256Z,53.33
2022-08-20T13:40:11.073Z,53.59
2022-08-20T13:42:43.183Z,53.78
2022-08-20T13:45:15.067Z,53.90
2022-08-20T13:47:47.314Z,53.51
2022-08-20T13:50:20.985Z,53.28
2022-08-20T13:52:53.073Z,53.39
2022-08-20T13:55:26.848Z,53.47
2022-08-20T13:57:59.690Z,53.52
2022-08-20T14:00:33.232Z,53.54
2022-08-20T14:03:06.379Z,53.08
2022-08-20T14:05:40.353Z,53.15
2022-08-20T14:08:22.864Z,52.68
2022-08-20T14:10:55.109Z,52.51
2022-08-20T14:13:27.857Z,52.61
2022-08-20T14:15:59.667Z,52.81
2022-08-20T14:18:32.227Z,53.04
2022-08-20T14:21:03.945Z,53.40
2022-08-20T14:23:36.960Z,53.51
2022-08-20T14:26:09.000Z,53.70
2022-08-20T14:28:40.839Z,53.42
2022-08-20T14:31:12.752Z,52.48
2022-08-20T14:33:44.904Z,51.86
2022-08-20T14:36:16.731Z,51.49
2022-08-20T14:38:48.487Z,51.02
2022-08-20T14:41:20.436Z,51.13
2022-08-20T14:43:52.257Z,50.86
2022-08-20T14:46:24.056Z,50.67
2022-08-20T14:48:55.792Z,50.57
2022-08-20T14:51:27.865Z,50.35
2022-08-20T14:53:59.664Z,50.47
2022-08-20T14:56:31.617Z,50.53
2022-08-20T14:59:03.550Z,50.09
2022-08-20T15:01:35.472Z,50.00
2022-08-20T15:04:07.234Z,49.65
2022-08-20T15:06:39.836Z,49.59
2022-08-20T15:09:11.660Z,49.48
2022-08-20T15:11:43.584Z,49.25
2022-08-20T15:14:18.426Z,49.09
2022-08-20T15:16:49.424Z,48.86
2022-08-20T15:19:21.845Z,48.59
2022-08-20T15:21:53.775Z,48.59
2022-08-20T15:24:25.995Z,48.73
2022-08-20T15:26:57.972Z,48.97
2022-08-20T15:29:30.294Z,49.30
2022-08-20T15:32:02.437Z,49.46
2022-08-20T15:34:34.393Z,49.52
2022-08-20T15:37:18.467Z,49.71
2022-08-20T15:39:51.348Z,49.99
2022-08-20T15:42:23.997Z,50.33
2022-08-20T15:44:56.060Z,50.67
2022-08-20T15:47:37.223Z,50.80
2022-08-20T15:50:14.034Z,51.04
2022-08-20T15:52:46.798Z,51.31
2022-08-20T15:55:19.324Z,51.64
2022-08-20T15:58:12.797Z,51.92
2022-08-20T16:00:57.099Z,52.15
2022-08-20T16:03:53.252Z,52.57
2022-08-20T16:06:26.711Z,52.81
2022-08-20T16:09:21.506Z,53.12
2022-08-20T16:12:02.077Z,53.44
2022-08-20T16:14:42.865Z,53.83
2022-08-20T16:17:23.304Z,54.24
2022-08-20T16:20:01.911Z,54.56
2022-08-20T16:22:33.945Z,55.16
2022-08-20T16:25:06.090Z,55.44
2022-08-20T16:27:50.863Z,55.68
2022-08-20T16:30:32.183Z,55.85
2022-08-20T16:33:13.043Z,56.09
2022-08-20T16:35:51.357Z,56.37
2022-08-20T16:38:50.203Z,56.79
2022-08-20T16:41:35.249Z,57.24
2022-08-20T16:44:41.111Z,57.71
2022-08-20T16:47:22.146Z,58.10
2022-08-20T16:50:02.831Z,58.37
2022-08-20T16:52:35.308Z,58.60
2022-08-20T16:55:07.289Z,58.97
2022-08-20T16:57:39.206Z,59.25
2022-08-20T17:00:18.775Z,59.58
2022-08-20T17:03:05.637Z,59.85
2022-08-20T17:05:46.199Z,60.16
2022-08-20T17:08:34.981Z,60.37
2022-08-20T17:11:13.473Z,60.57
2022-08-20T17:13:48.067Z,60.66
2022-08-20T17:16:24.172Z,60.75
2022-08-20T17:18:56.036Z,60.86
2022-08-20T17:21:32.187Z,60.98
2022-08-20T17:24:06.649Z,61.03
2022-08-20T17:26:47.216Z,61.31
2022-08-20T17:29:21.611Z,61.92
2022-08-20T17:31:55.933Z,62.34
2022-08-20T17:34:31.616Z,62.82
2022-08-20T17:37:11.976Z,63.05
2022-08-20T17:39:49.218Z,63.10
2022-08-20T17:42:26.667Z,63.23
2022-08-20T17:45:16.623Z,63.12
2022-08-20T17:47:48.275Z,62.98
2022-08-20T17:50:28.263Z,62.78
2022-08-20T17:53:12.333Z,62.79
2022-08-20T17:55:45.139Z,63.04
2022-08-20T17:58:19.141Z,63.29
2022-08-20T18:00:51.141Z,62.96
2022-08-20T18:03:25.067Z,62.70
2022-08-20T18:06:05.697Z,62.53
2022-08-20T18:08:50.167Z,62.43
2022-08-20T18:11:34.483Z,62.41
2022-08-20T18:14:26.775Z,62.46
2022-08-20T18:17:02.755Z,62.58
2022-08-20T18:20:12.411Z,62.65
2022-08-20T18:22:51.251Z,62.75
2022-08-20T18:25:34.917Z,62.92
2022-08-20T18:28:09.836Z,63.17
2022-08-20T18:30:52.215Z,63.54
2022-08-20T18:33:30.454Z,63.87
2022-08-20T18:36:13.884Z,64.22
2022-08-20T18:39:04.221Z,64.52
2022-08-20T18:41:38.721Z,64.69
2022-08-20T18:44:13.679Z,64.77
2022-08-20T18:46:56.583Z,64.88
2022-08-20T18:49:37.994Z,64.97
2022-08-20T18:52:13.127Z,65.07
2022-08-20T18:54:53.044Z,65.07
2022-08-20T18:57:40.842Z,65.22
2022-08-20T19:00:17.542Z,65.23
2022-08-20T19:02:56.802Z,65.33
2022-08-20T19:05:31.902Z,65.52
2022-08-20T19:08:05.152Z,65.73
2022-08-20T19:10:49.451Z,65.93
2022-08-20T19:13:46.424Z,66.32
2022-08-20T19:16:24.461Z,66.60
2022-08-20T19:18:56.664Z,66.95
2022-08-20T19:21:34.821Z,67.13
2022-08-20T19:24:07.847Z,67.20
2022-08-20T19:26:48.310Z,67.27
2022-08-20T19:29:22.589Z,67.39
2022-08-20T19:31:59.153Z,67.53
2022-08-20T19:34:32.283Z,67.68
2022-08-20T19:37:27.741Z,67.90
2022-08-20T19:39:46.728Z,68.13
2022-08-20T19:42:27.364Z,68.36
2022-08-20T19:45:10.787Z,68.65
2022-08-20T19:48:15.982Z,68.94
2022-08-20T19:50:54.734Z,69.21
2022-08-20T19:53:30.423Z,69.64
2022-08-20T19:56:05.472Z,69.87
2022-08-20T19:58:38.534Z,70.06
2022-08-20T20:01:22.237Z,70.27
2022-08-20T20:04:03.361Z,70.50
2022-08-20T20:06:41.380Z,70.71
2022-08-20T20:09:22.386Z,70.84
2022-08-20T20:11:56.703Z,71.03
2022-08-20T20:14:31.246Z,71.20
2022-08-20T20:17:07.595Z,71.42
2022-08-20T20:20:00.157Z,71.74
2022-08-20T20:22:36.042Z,72.03
2022-08-20T20:25:13.778Z,72.35
2022-08-20T20:27:54.378Z,72.67
2022-08-20T20:30:29.415Z,72.92
2022-08-20T20:33:04.361Z,73.11
2022-08-20T20:35:37.369Z,73.10
2022-08-20T20:38:19.663Z,73.08
2022-08-20T20:40:55.022Z,73.09
2022-08-20T20:43:29.778Z,73.16
2022-08-20T20:46:10.741Z,73.31
2022-08-20T20:48:48.691Z,73.47
2022-08-20T20:51:29.519Z,73.64
2022-08-20T20:54:03.983Z,73.83
2022-08-20T20:56:41.248Z,73.92
2022-08-20T20:59:13.163Z,74.00
2022-08-20T21:01:48.438Z,74.08
2022-08-20T21:04:23.261Z,74.12
2022-08-20T21:06:56.630Z,74.13
2022-08-20T21:09:28.584Z,74.12
2022-08-20T21:12:01.077Z,74.12
2022-08-20T21:14:33.041Z,74.10
2022-08-20T21:17:07.153Z,74.12
2022-08-20T21:19:41.107Z,74.23
2022-08-20T21:22:12.790Z,74.28
2022-08-20T21:24:45.910Z,74.28
2022-08-20T21:27:19.321Z,74.33
2022-08-20T21:29:51.272Z,74.41
2022-08-20T21:32:24.304Z,74.46
2022-08-20T21:34:56.161Z,74.50
2022-08-20T21:37:28.475Z,74.57
2022-08-20T21:40:00.399Z,74.62
2022-08-20T21:42:32.820Z,74.70
2022-08-20T21:45:08.671Z,74.71
2022-08-20T21:47:41.350Z,74.74
2022-08-20T21:50:15.048Z,74.78
2022-08-20T21:52:59.322Z,74.81
2022-08-20T21:55:23.070Z,74.94
2022-08-20T21:57:54.859Z,75.09
2022-08-20T22:00:46.759Z,75.30
2022-08-20T22:03:20.079Z,75.60
2022-08-20T22:05:53.023Z,75.80
2022-08-20T22:08:26.629Z,76.06
2022-08-20T22:10:59.754Z,76.29
2022-08-20T22:13:33.327Z,76.55
2022-08-20T22:16:08.687Z,76.61
2022-08-20T22:18:42.456Z,76.70
2022-08-20T22:21:17.355Z,76.68
2022-08-20T22:23:49.426Z,76.60
2022-08-20T22:26:21.660Z,76.71
2022-08-20T22:28:53.404Z,76.85
2022-08-20T22:31:30.414Z,77.02
2022-08-20T22:34:02.202Z,77.23
2022-08-20T22:36:34.652Z,77.38
2022-08-20T22:39:07.501Z,77.68
2022-08-20T22:41:39.958Z,77.71
2022-08-20T22:44:11.760Z,77.83
2022-08-20T22:46:47.604Z,77.97
2022-08-20T22:49:19.593Z,78.12
2022-08-20T22:51:52.813Z,78.18
2022-08-20T22:54:25.461Z,78.25
2022-08-20T22:56:57.313Z,78.17
2022-08-20T22:59:29.432Z,78.09
2022-08-20T23:02:08.367Z,78.21
2022-08-20T23:04:38.522Z,78.19
2022-08-20T23:07:11.611Z,78.21
2022-08-20T23:09:45.142Z,78.26
2022-08-20T23:12:17.240Z,78.32
2022-08-20T23:14:49.392Z,78.48
2022-08-20T23:17:21.360Z,78.61
2022-08-20T23:19:53.216Z,78.78
2022-08-20T23:22:24.932Z,78.85
2022-08-20T23:25:00.401Z,78.83
2022-08-20T23:27:30.084Z,78.92
2022-08-20T23:30:01.858Z,78.98
2022-08-20T23:32:33.911Z,78.86
2022-08-20T23:35:06.495Z,78.76
2022-08-20T23:37:41.375Z,78.74
2022-08-20T23:40:14.361Z,78.80
2022-08-20T23:42:46.195Z,78.96
2022-08-20T23:45:19.692Z,79.04
2022-08-20T23:47:51.656Z,79.10
2022-08-20T23:50:26.922Z,79.26
2022-08-20T23:52:59.413Z,79.36
2022-08-20T23:55:31.621Z,79.36
2022-08-20T23:58:03.644Z,79.45
